Time;durP1;ratioP1;P1;durP2;ratioP2;P2;SDS_P1;SDS_P2;PMS_P1;PMS_P2;Temp;Humidity;BMP_temperature;BMP_pressure;BME280_temperature;BME280_humidity;BME280_pressure;Samples;Min_cycle;Max_cycle;Signal;HPM_P1;HPM_P2
2022/07/14 00:01:00;;;;;;;6.53;4.83;;;21.00;99.90;;;;;;4988911;28;20256;-77
2022/07/14 00:03:26;;;;;;;9.67;5.13;;;20.90;99.90;;;;;;4988656;28;20774;-80
2022/07/14 00:05:54;;;;;;;6.70;4.93;;;20.90;99.90;;;;;;5010643;28;20238;-77
2022/07/14 00:08:21;;;;;;;7.20;5.30;;;20.90;99.90;;;;;;5012467;28;20196;-78
2022/07/14 00:10:48;;;;;;;6.27;4.83;;;20.90;99.90;;;;;;5012593;28;20295;-79
2022/07/14 00:13:15;;;;;;;7.20;5.43;;;20.90;99.90;;;;;;5012573;28;20192;-79
2022/07/14 00:15:41;;;;;;;8.77;5.10;;;20.90;99.90;;;;;;5013075;28;20298;-80
2022/07/14 00:18:09;;;;;;;6.97;4.90;;;20.80;99.90;;;;;;5014134;28;20204;-80
2022/07/14 00:20:36;;;;;;;8.43;5.60;;;20.80;99.90;;;;;;5032147;28;20195;-79
2022/07/14 00:23:03;;;;;;;7.10;4.93;;;20.70;99.90;;;;;;5031881;28;20235;-80
2022/07/14 00:25:30;;;;;;;6.93;4.97;;;20.80;99.90;;;;;;5032117;28;20669;-80
2022/07/14 00:27:57;;;;;;;8.33;5.50;;;20.70;99.90;;;;;;5033418;28;20242;-79
2022/07/14 00:30:24;;;;;;;6.03;5.10;;;20.60;99.90;;;;;;5031801;28;20231;-79
2022/07/14 00:32:51;;;;;;;6.30;4.97;;;20.50;99.90;;;;;;5031863;28;20294;-78
2022/07/14 00:35:18;;;;;;;8.47;5.33;;;20.50;99.90;;;;;;5032271;28;20601;-81
2022/07/14 00:37:45;;;;;;;7.10;5.33;;;20.50;99.90;;;;;;5032320;28;20218;-80
2022/07/14 00:40:13;;;;;;;8.27;5.10;;;20.40;99.90;;;;;;5032002;28;20199;-80
2022/07/14 00:42:44;;;;;;;6.57;5.10;;;20.40;99.90;;;;;;5031891;28;20199;-80
2022/07/14 00:45:13;;;;;;;9.87;5.40;;;20.30;99.90;;;;;;5031964;28;20238;-75
2022/07/14 00:47:42;;;;;;;7.37;5.20;;;20.30;99.90;;;;;;5031808;28;20282;-79
2022/07/14 00:50:11;;;;;;;8.30;5.23;;;20.20;99.90;;;;;;5032280;28;20241;-80
2022/07/14 00:52:41;;;;;;;9.13;5.30;;;20.20;99.90;;;;;;5033033;28;20231;-80
2022/07/14 00:55:10;;;;;;;6.50;4.97;;;20.20;99.90;;;;;;5033109;28;20279;-79
2022/07/14 00:57:37;;;;;;;8.57;5.17;;;20.10;99.90;;;;;;5035664;28;20735;-80
2022/07/14 01:00:06;;;;;;;11.37;5.57;;;20.00;99.90;;;;;;5035966;28;20207;-80
2022/07/14 01:02:34;;;;;;;9.23;5.07;;;20.00;99.90;;;;;;5035833;28;20210;-79
2022/07/14 01:05:01;;;;;;;7.90;5.00;;;20.00;99.90;;;;;;5035733;28;20245;-81
2022/07/14 01:07:28;;;;;;;7.00;5.27;;;19.90;99.90;;;;;;5035504;28;20668;-79
2022/07/14 01:09:55;;;;;;;6.83;4.97;;;19.80;99.90;;;;;;5035725;28;20203;-83
2022/07/14 01:12:22;;;;;;;7.43;5.20;;;19.80;99.90;;;;;;5035382;28;20231;-81
2022/07/14 01:14:49;;;;;;;11.67;5.10;;;19.70;99.90;;;;;;5035316;28;20199;-82
2022/07/14 01:17:17;;;;;;;7.83;5.50;;;19.70;99.90;;;;;;5036604;28;20222;-82
2022/07/14 01:19:47;;;;;;;6.20;5.00;;;19.60;99.90;;;;;;5035230;28;20725;-82
2022/07/14 01:22:14;;;;;;;7.80;5.70;;;19.60;99.90;;;;;;5035373;28;20206;-83
2022/07/14 01:24:41;;;;;;;6.77;5.20;;;19.60;99.90;;;;;;5035949;28;20637;-82
2022/07/14 01:27:08;;;;;;;8.77;5.20;;;19.60;99.90;;;;;;5034963;28;20228;-82
2022/07/14 01:29:35;;;;;;;8.83;5.60;;;19.50;99.90;;;;;;5036362;28;20243;-83
2022/07/14 01:32:02;;;;;;;8.50;5.70;;;19.50;99.90;;;;;;5035293;28;20191;-83
2022/07/14 01:34:29;;;;;;;7.00;5.70;;;19.50;99.90;;;;;;5035552;28;20230;-80
2022/07/14 01:36:57;;;;;;;7.70;5.50;;;19.40;99.90;;;;;;5036241;28;20215;-80
2022/07/14 01:39:23;;;;;;;7.63;5.67;;;19.30;99.90;;;;;;5036529;28;20234;-79
2022/07/14 01:41:50;;;;;;;11.57;5.60;;;19.30;99.90;;;;;;5018500;28;20261;-80
2022/07/14 01:44:17;;;;;;;9.13;5.63;;;19.30;99.90;;;;;;5036018;28;20274;-80
2022/07/14 01:46:44;;;;;;;8.20;5.70;;;19.30;99.90;;;;;;5036005;28;20215;-80
2022/07/14 01:49:12;;;;;;;8.00;5.83;;;19.20;99.90;;;;;;5034871;28;20199;-80
2022/07/14 01:51:39;;;;;;;9.70;6.40;;;19.20;99.90;;;;;;5035008;28;20254;-78
2022/07/14 01:54:06;;;;;;;8.73;5.50;;;19.20;99.90;;;;;;5035793;28;20205;-78
2022/07/14 01:56:40;;;;;;;7.93;5.90;;;19.10;99.90;;;;;;5034837;28;20538;-78
2022/07/14 01:59:07;;;;;;;9.10;6.23;;;19.10;99.90;;;;;;5034813;28;20233;-77
2022/07/14 02:01:40;;;;;;;8.40;5.80;;;19.10;99.90;;;;;;5034551;28;20637;-74
2022/07/14 02:04:13;;;;;;;8.33;6.23;;;19.10;99.90;;;;;;5035766;28;20192;-79
2022/07/14 02:06:49;;;;;;;7.90;5.53;;;19.00;99.90;;;;;;5035013;28;20230;-76
2022/07/14 02:09:17;;;;;;;9.30;5.60;;;19.00;99.90;;;;;;5034059;28;20290;-79
2022/07/14 02:14:32;;;;;;;9.73;5.63;;;18.90;99.90;;;;;;5034506;28;20295;-79
2022/07/14 02:17:00;;;;;;;7.67;5.97;;;18.80;99.90;;;;;;5035639;28;20198;-80
2022/07/14 02:19:26;;;;;;;8.17;6.07;;;18.70;99.90;;;;;;5034463;28;20212;-81
2022/07/14 02:21:54;;;;;;;7.90;5.90;;;18.70;99.90;;;;;;5035881;28;20209;-78
2022/07/14 02:24:22;;;;;;;9.00;6.20;;;18.70;99.90;;;;;;5034061;28;20203;-81
2022/07/14 02:26:50;;;;;;;9.23;5.93;;;18.70;99.90;;;;;;5034252;28;20229;-79
2022/07/14 02:29:19;;;;;;;8.57;5.70;;;18.70;99.90;;;;;;5035118;28;20246;-79
2022/07/14 02:31:46;;;;;;;8.73;6.10;;;18.70;99.90;;;;;;5034267;28;20294;-79
2022/07/14 02:34:14;;;;;;;8.40;5.70;;;18.70;99.90;;;;;;5035318;28;20238;-78
2022/07/14 02:36:41;;;;;;;7.47;5.97;;;18.70;99.90;;;;;;5034209;28;20641;-79
2022/07/14 02:39:08;;;;;;;7.43;5.83;;;18.70;99.90;;;;;;5033653;28;20276;-79
2022/07/14 02:41:35;;;;;;;9.00;5.80;;;18.60;99.90;;;;;;5033756;28;20199;-80
2022/07/14 02:44:02;;;;;;;7.63;5.73;;;18.60;99.90;;;;;;5035290;28;20202;-80
2022/07/14 02:46:29;;;;;;;8.60;5.70;;;18.50;99.90;;;;;;5033766;28;20322;-81
2022/07/14 02:48:56;;;;;;;9.30;5.43;;;18.50;99.90;;;;;;5033762;28;20195;-81
2022/07/14 02:51:23;;;;;;;10.00;6.20;;;18.50;99.90;;;;;;5033873;28;20733;-80
2022/07/14 02:53:49;;;;;;;7.57;5.63;;;18.50;99.90;;;;;;5033331;28;20246;-80
2022/07/14 02:56:16;;;;;;;12.03;5.90;;;18.50;99.90;;;;;;5033988;28;20700;-84
2022/07/14 02:58:43;;;;;;;8.30;5.70;;;18.50;99.90;;;;;;5033697;28;20191;-80
2022/07/14 03:01:10;;;;;;;7.97;5.50;;;18.50;99.90;;;;;;5033375;28;20657;-80
2022/07/14 03:03:40;;;;;;;6.70;5.30;;;18.40;99.90;;;;;;5033837;28;20219;-80
2022/07/14 03:06:15;;;;;;;9.37;5.30;;;18.40;99.90;;;;;;5033541;28;20318;-78
2022/07/14 03:08:43;;;;;;;8.40;5.60;;;18.40;99.90;;;;;;5033369;28;20744;-76
2022/07/14 03:11:11;;;;;;;9.63;5.87;;;18.50;99.90;;;;;;5033391;28;20727;-80
2022/07/14 03:13:38;;;;;;;8.63;5.73;;;18.50;99.90;;;;;;5033247;28;20226;-81
2022/07/14 03:16:08;;;;;;;7.93;5.50;;;18.50;99.90;;;;;;5034663;28;20196;-80
2022/07/14 03:18:39;;;;;;;7.57;5.30;;;18.40;99.90;;;;;;5033442;28;20270;-80
2022/07/14 03:21:09;;;;;;;7.47;5.50;;;18.50;99.90;;;;;;5032580;28;20210;-79
2022/07/14 03:23:40;;;;;;;7.90;5.50;;;18.50;99.90;;;;;;5032978;28;20203;-80
2022/07/14 03:26:07;;;;;;;8.00;5.60;;;18.40;99.90;;;;;;5034285;28;20217;-80
2022/07/14 03:28:35;;;;;;;7.60;5.60;;;18.50;99.90;;;;;;5032984;28;20577;-79
2022/07/14 03:31:02;;;;;;;8.57;5.97;;;18.50;99.90;;;;;;5033187;28;20204;-80
2022/07/14 03:33:30;;;;;;;8.70;5.53;;;18.50;99.90;;;;;;5032765;28;20636;-78
2022/07/14 03:35:57;;;;;;;11.13;6.20;;;18.50;99.90;;;;;;5032875;28;20207;-80
2022/07/14 03:38:24;;;;;;;8.07;5.67;;;18.50;99.90;;;;;;5034357;28;20677;-80
2022/07/14 03:41:03;;;;;;;8.57;5.30;;;18.50;99.90;;;;;;5032752;28;20652;-80
2022/07/14 03:43:31;;;;;;;9.63;5.53;;;18.40;99.90;;;;;;5032901;28;20565;-78
2022/07/14 03:45:58;;;;;;;10.43;5.80;;;18.50;99.90;;;;;;5032583;28;20211;-81
2022/07/14 03:48:25;;;;;;;9.10;5.87;;;18.50;99.90;;;;;;5033856;28;20282;-79
2022/07/14 03:50:52;;;;;;;7.37;5.70;;;18.60;99.90;;;;;;5033975;28;20187;-80
2022/07/14 03:53:19;;;;;;;8.23;5.50;;;18.50;99.90;;;;;;5032664;28;20565;-80
2022/07/14 03:55:46;;;;;;;10.40;5.80;;;18.60;99.90;;;;;;5032490;28;20663;-80
2022/07/14 03:58:19;;;;;;;9.63;5.53;;;18.60;99.90;;;;;;5032568;28;20203;-80
2022/07/14 04:00:46;;;;;;;8.53;6.03;;;18.70;99.90;;;;;;5033721;28;20550;-80
2022/07/14 04:03:13;;;;;;;7.77;5.83;;;18.70;99.90;;;;;;5032339;28;20199;-81
2022/07/14 04:05:40;;;;;;;7.43;5.43;;;18.80;99.90;;;;;;5032398;28;20192;-82
2022/07/14 04:08:07;;;;;;;9.10;5.73;;;18.80;99.90;;;;;;5033759;28;20191;-81
2022/07/14 04:10:34;;;;;;;11.00;6.00;;;18.80;99.90;;;;;;5033984;28;20227;-81
2022/07/14 04:13:03;;;;;;;9.23;5.83;;;18.90;99.90;;;;;;5032625;28;20195;-82
2022/07/14 04:15:30;;;;;;;8.77;5.13;;;19.00;99.90;;;;;;5034031;28;20188;-83
2022/07/14 04:17:58;;;;;;;11.47;5.93;;;19.00;99.90;;;;;;5032796;28;20202;-80
2022/07/14 04:20:26;;;;;;;8.70;5.37;;;19.00;99.90;;;;;;5033566;28;20210;-81
2022/07/14 04:22:54;;;;;;;7.57;5.30;;;19.00;99.90;;;;;;5033245;28;20553;-79
2022/07/14 04:25:21;;;;;;;8.63;5.63;;;19.00;99.90;;;;;;5033278;28;20187;-77
2022/07/14 04:27:48;;;;;;;8.67;5.90;;;19.10;99.90;;;;;;5032022;28;20237;-81
2022/07/14 04:30:15;;;;;;;8.17;5.37;;;19.20;99.90;;;;;;5015170;28;20231;-81
2022/07/14 04:32:42;;;;;;;7.33;5.83;;;19.20;99.90;;;;;;5032016;28;20290;-80
2022/07/14 04:35:09;;;;;;;9.40;5.53;;;19.20;99.90;;;;;;5032001;28;20712;-79
2022/07/14 04:37:36;;;;;;;6.90;5.50;;;19.30;99.90;;;;;;5032076;28;20238;-83
2022/07/14 04:40:04;;;;;;;8.30;5.70;;;19.30;99.90;;;;;;5032191;28;20188;-80
2022/07/14 04:42:31;;;;;;;8.17;6.13;;;19.40;99.90;;;;;;5031699;28;20203;-81
2022/07/14 04:44:58;;;;;;;9.53;6.23;;;19.40;99.90;;;;;;5032270;28;20206;-84
2022/07/14 04:47:25;;;;;;;7.87;5.40;;;19.40;99.90;;;;;;5015511;28;20227;-79
2022/07/14 04:52:48;;;;;;;8.87;5.40;;;19.50;99.90;;;;;;5031587;28;20219;-78
2022/07/14 04:55:15;;;;;;;8.60;5.97;;;19.60;99.90;;;;;;5031903;28;20222;-79
2022/07/14 04:57:42;;;;;;;9.87;5.63;;;19.70;99.90;;;;;;5031865;28;20204;-79
2022/07/14 05:00:11;;;;;;;10.93;5.97;;;19.80;99.90;;;;;;5033256;28;20206;-77
2022/07/14 05:02:38;;;;;;;8.27;5.53;;;19.80;99.90;;;;;;5031497;28;20602;-79
2022/07/14 05:05:05;;;;;;;9.83;5.53;;;19.80;99.90;;;;;;5031717;28;20210;-78
2022/07/14 05:07:33;;;;;;;9.07;5.53;;;19.90;99.90;;;;;;5032186;28;20215;-79
2022/07/14 05:10:00;;;;;;;8.90;5.50;;;19.90;99.90;;;;;;5031492;28;20326;-80
2022/07/14 05:12:27;;;;;;;8.30;5.50;;;20.00;99.90;;;;;;5031707;28;20210;-79
2022/07/14 05:14:54;;;;;;;6.23;4.90;;;20.10;99.90;;;;;;5031998;28;20258;-79
2022/07/14 05:17:22;;;;;;;12.03;5.73;;;20.20;99.90;;;;;;5031794;28;20295;-79
2022/07/14 05:19:52;;;;;;;9.73;4.97;;;20.20;99.90;;;;;;5031729;28;20206;-79
2022/07/14 05:22:18;;;;;;;7.93;5.10;;;20.40;99.90;;;;;;5031587;28;20230;-78
2022/07/14 05:24:45;;;;;;;6.67;4.40;;;20.40;99.90;;;;;;5031583;28;20768;-79
2022/07/14 05:27:12;;;;;;;6.20;4.60;;;20.50;99.90;;;;;;5032160;28;20618;-81
2022/07/14 05:29:39;;;;;;;6.90;4.37;;;20.60;99.90;;;;;;5031283;28;20228;-83
2022/07/14 05:32:06;;;;;;;6.53;4.43;;;20.60;99.90;;;;;;5032390;28;20197;-80
2022/07/14 05:34:40;;;;;;;6.50;4.27;;;20.60;99.90;;;;;;5031630;28;20351;-79
2022/07/14 05:37:08;;;;;;;8.90;4.57;;;20.80;99.90;;;;;;5031505;28;20223;-80
2022/07/14 05:39:35;;;;;;;7.30;3.80;;;20.80;99.90;;;;;;5031118;28;20207;-78
2022/07/14 05:42:02;;;;;;;5.63;3.80;;;20.80;99.90;;;;;;5031272;28;20279;-79
2022/07/14 05:44:28;;;;;;;5.90;3.60;;;21.00;99.90;;;;;;5034907;28;20294;-79
2022/07/14 05:46:55;;;;;;;6.03;3.60;;;21.00;99.90;;;;;;5036001;28;20212;-79
2022/07/14 05:49:22;;;;;;;8.87;4.20;;;21.10;99.90;;;;;;5034671;28;20246;-78
2022/07/14 05:51:50;;;;;;;5.47;3.30;;;21.10;99.90;;;;;;5034862;28;20530;-77
2022/07/14 05:54:17;;;;;;;9.50;3.83;;;21.20;99.90;;;;;;5035728;28;20191;-80
2022/07/14 05:56:44;;;;;;;5.93;3.53;;;21.30;99.90;;;;;;5035045;28;20212;-80
2022/07/14 05:59:11;;;;;;;5.80;3.33;;;21.40;99.90;;;;;;5034689;28;20294;-80
2022/07/14 06:01:58;;;;;;;5.33;3.90;;;21.40;99.90;;;;;;5034606;28;20183;-79
2022/07/14 06:04:26;;;;;;;5.13;3.83;;;21.30;99.90;;;;;;5034770;28;20214;-81
2022/07/14 06:06:53;;;;;;;11.33;4.30;;;21.40;99.90;;;;;;5034452;28;20221;-78
2022/07/14 06:09:21;;;;;;;5.67;4.10;;;21.50;99.90;;;;;;5034443;28;20250;-77
2022/07/14 06:11:49;;;;;;;9.33;4.30;;;21.50;99.90;;;;;;5035779;28;20180;-78
2022/07/14 06:14:16;;;;;;;4.57;3.80;;;21.50;99.90;;;;;;5034051;28;20253;-79
2022/07/14 06:16:43;;;;;;;7.00;4.00;;;21.40;99.90;;;;;;5034591;28;20227;-77
2022/07/14 06:19:11;;;;;;;6.30;3.80;;;21.40;99.90;;;;;;5034616;28;20206;-78
2022/07/14 06:21:43;;;;;;;6.40;4.00;;;21.50;99.90;;;;;;5035495;28;20609;-79
2022/07/14 06:24:12;;;;;;;5.00;3.90;;;21.50;99.90;;;;;;5034029;28;20234;-79
2022/07/14 06:26:39;;;;;;;7.27;3.70;;;21.60;99.90;;;;;;5034203;28;20223;-79
2022/07/14 06:29:06;;;;;;;4.43;3.30;;;21.60;99.90;;;;;;5034921;28;20306;-79
2022/07/14 06:31:34;;;;;;;4.27;3.40;;;21.60;99.90;;;;;;5034133;28;20666;-77
2022/07/14 06:34:03;;;;;;;4.70;3.30;;;21.70;99.90;;;;;;5033959;28;20195;-78
2022/07/14 06:36:31;;;;;;;4.20;3.20;;;21.60;99.90;;;;;;5033725;28;20708;-78
2022/07/14 06:38:59;;;;;;;4.73;3.17;;;21.70;99.90;;;;;;5033747;28;20377;-78
2022/07/14 06:41:26;;;;;;;5.93;3.40;;;21.80;99.90;;;;;;5035141;28;20258;-78
2022/07/14 06:43:53;;;;;;;5.30;3.10;;;21.70;99.90;;;;;;5034280;28;20668;-78
2022/07/14 06:46:19;;;;;;;4.90;3.23;;;21.80;99.90;;;;;;5033724;28;20191;-83
2022/07/14 06:48:47;;;;;;;6.10;3.57;;;21.80;99.90;;;;;;5034963;28;20211;-79
2022/07/14 06:51:14;;;;;;;7.23;3.20;;;21.80;99.90;;;;;;5033532;28;20283;-71
2022/07/14 06:53:41;;;;;;;4.07;3.00;;;21.80;99.90;;;;;;5033437;28;20203;-76
2022/07/14 06:56:08;;;;;;;6.93;3.10;;;21.70;99.90;;;;;;5033312;28;20242;-76
2022/07/14 06:58:35;;;;;;;4.03;3.07;;;21.70;99.90;;;;;;5033571;28;20199;-75
2022/07/14 07:01:03;;;;;;;4.27;2.97;;;21.60;99.90;;;;;;5033243;28;20279;-76
2022/07/14 07:03:30;;;;;;;5.87;3.20;;;21.70;99.90;;;;;;5033489;28;20298;-77
2022/07/14 07:08:44;;;;;;;6.10;3.40;;;22.00;99.90;;;;;;5033343;28;20237;-80
2022/07/14 07:11:11;;;;;;;6.20;3.37;;;22.10;99.90;;;;;;5033393;28;20278;-81
2022/07/14 07:13:38;;;;;;;3.50;2.83;;;22.00;99.90;;;;;;5033649;28;20279;-79
2022/07/14 07:16:07;;;;;;;8.30;3.20;;;22.20;99.90;;;;;;5035057;28;20242;-81
2022/07/14 07:18:35;;;;;;;4.97;3.03;;;22.30;99.90;;;;;;5030821;28;20191;-77
2022/07/14 07:21:03;;;;;;;6.27;3.00;;;22.30;99.90;;;;;;5032646;28;20222;-77
2022/07/14 07:23:31;;;;;;;3.80;2.97;;;22.20;99.90;;;;;;5028833;28;20187;-77
2022/07/14 07:25:58;;;;;;;8.13;3.03;;;22.20;99.90;;;;;;5026340;28;20188;-75
2022/07/14 07:28:26;;;;;;;4.57;2.93;;;22.30;99.90;;;;;;5032515;28;20317;-78
2022/07/14 07:30:53;;;;;;;5.27;3.50;;;22.40;99.90;;;;;;5029016;28;20196;-77
2022/07/14 07:33:20;;;;;;;5.27;3.17;;;22.40;99.90;;;;;;5016259;28;20195;-78
2022/07/14 07:35:47;;;;;;;4.60;3.27;;;22.50;99.90;;;;;;5064953;28;20199;-80
2022/07/14 07:38:14;;;;;;;6.63;3.00;;;22.50;99.90;;;;;;4998881;28;20279;-74
2022/07/14 07:40:41;;;;;;;5.13;3.00;;;22.50;99.90;;;;;;5031618;28;20291;-71
2022/07/14 07:43:09;;;;;;;4.27;2.80;;;22.60;99.90;;;;;;5032674;28;20286;-76
2022/07/14 07:45:36;;;;;;;3.37;2.60;;;22.60;99.90;;;;;;5034542;28;20191;-75
2022/07/14 07:48:04;;;;;;;5.03;2.80;;;22.60;99.90;;;;;;5033129;28;20316;-77
2022/07/14 07:50:32;;;;;;;5.07;2.47;;;22.60;99.90;;;;;;5033906;28;20245;-77
2022/07/14 07:52:59;;;;;;;4.37;2.30;;;22.70;99.90;;;;;;5066304;28;20286;-77
2022/07/14 07:55:26;;;;;;;3.07;2.50;;;22.80;99.90;;;;;;5032388;28;20204;-74
2022/07/14 07:57:54;;;;;;;4.17;2.50;;;22.80;99.90;;;;;;5065865;28;20644;-79
2022/07/14 08:00:22;;;;;;;5.60;2.70;;;23.10;99.90;;;;;;5033351;28;20265;-80
2022/07/14 08:02:52;;;;;;;3.45;3.00;;;23.20;99.90;;;;;;5033461;28;20196;-83
2022/07/14 08:05:26;;;;;;;5.33;2.60;;;23.20;99.90;;;;;;5033062;28;20196;-85
2022/07/14 08:08:13;;;;;;;4.77;2.90;;;23.20;99.90;;;;;;5032176;28;20224;-81
2022/07/14 08:10:40;;;;;;;3.70;2.40;;;23.20;99.90;;;;;;5032431;28;20227;-86
2022/07/14 08:13:08;;;;;;;3.40;2.33;;;23.30;99.90;;;;;;5032147;28;20294;-82
2022/07/14 08:15:36;;;;;;;6.50;2.37;;;23.30;99.90;;;;;;5032021;28;20191;-80
2022/07/14 08:18:03;;;;;;;2.60;2.00;;;23.20;99.90;;;;;;5065175;28;20294;-81
2022/07/14 08:20:31;;;;;;;2.70;2.00;;;23.20;99.90;;;;;;5032722;28;20214;-84
2022/07/14 08:22:58;;;;;;;5.03;2.10;;;23.20;99.90;;;;;;5031445;28;20228;-82
2022/07/14 08:25:25;;;;;;;4.83;2.23;;;23.20;99.90;;;;;;5033414;28;20183;-85
2022/07/14 08:27:52;;;;;;;4.50;2.17;;;23.60;99.90;;;;;;5071688;28;20226;-87
2022/07/14 08:30:20;;;;;;;3.28;2.42;;;24.10;99.90;;;;;;5041873;28;20254;-84
2022/07/14 08:32:49;;;;;;;2.95;2.45;;;24.60;99.90;;;;;;5065660;28;20200;-81
2022/07/14 08:35:20;;;;;;;4.63;2.40;;;25.10;99.90;;;;;;5031966;28;20187;-81
2022/07/14 08:37:48;;;;;;;5.13;2.70;;;25.60;99.90;;;;;;5031885;28;20626;-82
2022/07/14 08:40:17;;;;;;;6.72;2.80;;;25.70;99.90;;;;;;5031408;28;20294;-81
2022/07/14 08:42:46;;;;;;;6.93;2.90;;;25.80;99.90;;;;;;5064776;28;20195;-81
2022/07/14 08:45:16;;;;;;;5.85;2.60;;;26.00;99.90;;;;;;5065207;28;20199;-79
2022/07/14 08:47:43;;;;;;;4.32;2.55;;;26.40;99.90;;;;;;5065025;28;20273;-78
2022/07/14 08:50:14;;;;;;;3.08;2.55;;;26.00;99.90;;;;;;5026895;28;20199;-81
2022/07/14 08:52:43;;;;;;;5.60;3.10;;;26.00;99.90;;;;;;5031223;28;20217;-70
2022/07/14 08:55:12;;;;;;;5.05;2.92;;;26.30;99.90;;;;;;5031420;28;20736;-80
2022/07/14 08:57:40;;;;;;;4.03;2.85;;;26.40;99.90;;;;;;5031160;28;20207;-78
2022/07/14 09:00:14;;;;;;;4.03;2.83;;;26.20;99.90;;;;;;5031787;28;20204;-85
2022/07/14 09:02:50;;;;;;;3.60;2.83;;;26.10;99.90;;;;;;5064999;28;20199;-88
2022/07/14 09:05:41;;;;;;;4.07;2.70;;;26.30;99.90;;;;;;5033891;28;20210;-88
2022/07/14 09:08:11;;;;;;;5.82;2.83;;;26.30;99.90;;;;;;5031676;28;20247;-77
2022/07/14 09:10:40;;;;;;;5.88;3.00;;;26.40;99.90;;;;;;5031204;28;20218;-87
2022/07/14 09:13:30;;;;;;;3.28;2.80;;;26.20;99.90;;;;;;5064570;28;20675;-82
2022/07/14 09:16:13;;;;;;;3.90;2.75;;;25.60;99.90;;;;;;5031325;28;20287;-76
2022/07/14 09:18:41;;;;;;;4.82;2.95;;;25.50;99.90;;;;;;5032996;28;20246;-84
2022/07/14 09:21:20;;;;;;;4.07;3.20;;;25.20;99.90;;;;;;5067999;28;20257;-83
2022/07/14 09:23:48;;;;;;;6.88;3.28;;;25.60;99.90;;;;;;5034771;28;20206;-81
2022/07/14 09:26:18;;;;;;;6.28;3.10;;;26.00;99.90;;;;;;5036175;28;20203;-84
2022/07/14 09:28:48;;;;;;;4.45;2.72;;;26.40;99.90;;;;;;5035710;28;20589;-80
2022/07/14 09:31:22;;;;;;;4.45;2.47;;;26.50;99.90;;;;;;5036678;28;20230;-85
2022/07/14 09:33:52;;;;;;;3.92;2.20;;;26.40;99.90;;;;;;5036338;28;20241;-82
2022/07/14 09:36:26;;;;;;;3.85;2.10;;;26.50;99.60;;;;;;5036107;28;20626;-83
2022/07/14 09:38:59;;;;;;;4.97;2.28;;;26.70;99.00;;;;;;5069099;28;20203;-84
2022/07/14 09:41:33;;;;;;;5.32;2.33;;;26.80;96.60;;;;;;5036449;28;20219;-83
2022/07/14 09:44:12;;;;;;;4.43;2.30;;;27.00;96.80;;;;;;5037003;28;20230;-82
2022/07/14 09:46:51;;;;;;;3.03;2.03;;;26.90;97.40;;;;;;5035752;28;20200;-85
2022/07/14 09:49:21;;;;;;;2.72;1.85;;;27.00;95.60;;;;;;5036598;28;20207;-79
2022/07/14 09:52:10;;;;;;;3.05;1.83;;;27.00;93.40;;;;;;5035899;28;20210;-84
2022/07/14 09:54:41;;;;;;;3.22;1.98;;;27.00;93.30;;;;;;5030767;28;20227;-75
2022/07/14 09:57:18;;;;;;;2.95;1.80;;;27.20;93.80;;;;;;5034383;28;20196;-80
2022/07/14 10:00:11;;;;;;;3.17;2.20;;;27.40;94.40;;;;;;5035846;28;20282;-79
2022/07/14 10:02:40;;;;;;;5.80;2.08;;;27.70;93.80;;;;;;5034777;28;20195;-86
2022/07/14 10:05:09;;;;;;;4.72;1.92;;;27.80;93.30;;;;;;5067736;28;20204;-70
2022/07/14 10:07:47;;;;;;;3.10;1.63;;;27.70;92.90;;;;;;5034775;28;20250;-83
2022/07/14 10:10:22;;;;;;;3.63;1.80;;;27.30;90.90;;;;;;5035863;28;20188;-83
2022/07/14 10:12:51;;;;;;;3.60;1.80;;;27.80;91.10;;;;;;5067587;28;20195;-77
2022/07/14 10:15:18;;;;;;;4.38;2.10;;;28.30;91.00;;;;;;5034325;28;20234;-81
2022/07/14 10:17:46;;;;;;;2.20;1.80;;;28.50;90.40;;;;;;5034683;28;20286;-83
2022/07/14 10:20:15;;;;;;;6.00;1.58;;;28.70;90.00;;;;;;5067689;28;20199;-83
2022/07/14 10:22:45;;;;;;;3.25;1.70;;;28.80;85.30;;;;;;5034619;28;20203;-81
2022/07/14 10:25:12;;;;;;;3.65;1.90;;;29.00;80.70;;;;;;5017678;28;20191;-84
2022/07/14 10:27:50;;;;;;;6.95;1.70;;;28.50;80.70;;;;;;5036328;28;20326;-83
2022/07/14 10:30:18;;;;;;;2.72;1.40;;;28.50;79.40;;;;;;5029110;28;20285;-84
2022/07/14 10:33:02;;;;;;;2.42;1.45;;;28.60;77.60;;;;;;5062464;28;20202;-73
2022/07/14 10:35:32;;;;;;;5.20;1.77;;;29.00;77.40;;;;;;5033585;28;20245;-86
2022/07/14 10:38:17;;;;;;;3.03;1.60;;;29.10;76.10;;;;;;5066355;28;20644;-80
2022/07/14 10:41:10;;;;;;;3.33;1.67;;;29.10;75.80;;;;;;5033271;28;20191;-79
2022/07/14 10:44:06;;;;;;;3.20;1.35;;;28.80;76.20;;;;;;5033532;28;20211;-85
2022/07/14 10:46:45;;;;;;;1.83;1.40;;;29.50;71.40;;;;;;5033810;28;20205;-80
2022/07/14 10:49:14;;;;;;;4.20;1.52;;;29.70;69.30;;;;;;5033468;28;20215;-79
2022/07/14 10:51:51;;;;;;;2.88;1.60;;;29.70;67.30;;;;;;5033415;28;20295;-75
2022/07/14 10:54:27;;;;;;;4.60;1.70;;;29.70;66.90;;;;;;5033325;28;20214;-77
2022/07/14 10:57:11;;;;;;;4.50;1.50;;;29.70;68.80;;;;;;5033621;28;20203;-83
2022/07/14 10:59:40;;;;;;;5.78;1.50;;;30.00;65.10;;;;;;5066627;28;20301;-81
2022/07/14 11:02:13;;;;;;;4.60;1.60;;;29.60;65.90;;;;;;5032890;28;20218;-78
2022/07/14 11:05:03;;;;;;;3.83;1.60;;;29.20;67.80;;;;;;5033444;28;20290;-81
2022/07/14 11:07:38;;;;;;;2.78;1.50;;;28.90;64.90;;;;;;5013350;28;20728;-86
2022/07/14 11:10:18;;;;;;;2.78;1.30;;;29.20;63.00;;;;;;5014286;28;20188;-84
2022/07/14 11:13:06;;;;;;;4.25;1.75;;;29.20;65.80;;;;;;5029719;28;20295;-85
2022/07/14 11:15:51;;;;;;;3.20;1.58;;;29.80;66.50;;;;;;5029938;28;20220;-81
2022/07/14 11:18:18;;;;;;;3.65;1.42;;;30.20;62.30;;;;;;5013482;28;20258;-80
2022/07/14 11:21:00;;;;;;;3.78;1.30;;;30.10;61.90;;;;;;5014222;28;20188;-70
2022/07/14 11:23:57;;;;;;;3.40;1.17;;;30.80;59.90;;;;;;5012853;28;20223;-72
2022/07/14 11:26:41;;;;;;;2.65;1.40;;;31.30;56.10;;;;;;5029447;28;20204;-72
2022/07/14 11:29:15;;;;;;;2.85;1.20;;;30.90;54.80;;;;;;5028851;28;20248;-74
2022/07/14 11:31:49;;;;;;;2.67;1.10;;;31.20;56.70;;;;;;5029158;28;20188;-76
2022/07/14 11:37:10;;;;;;;2.33;1.40;;;31.10;57.10;;;;;;5065120;28;20210;-85
2022/07/14 11:39:57;;;;;;;3.35;1.40;;;30.80;55.50;;;;;;5027537;28;20200;-76
2022/07/14 11:42:24;;;;;;;2.75;1.40;;;30.80;56.00;;;;;;5031885;28;20212;-80
2022/07/14 11:44:52;;;;;;;2.58;1.40;;;30.30;56.70;;;;;;5032283;28;20234;-82
2022/07/14 11:47:29;;;;;;;3.17;1.42;;;30.10;54.90;;;;;;5031986;28;20191;-79
2022/07/14 11:50:02;;;;;;;2.40;1.10;;;30.50;56.00;;;;;;5033348;28;20284;-81
2022/07/14 11:52:40;;;;;;;1.85;1.30;;;31.40;52.90;;;;;;5032498;28;20199;-78
2022/07/14 11:55:12;;;;;;;4.40;1.40;;;31.50;52.80;;;;;;5032055;28;20664;-84
2022/07/14 11:57:50;;;;;;;1.88;1.10;;;31.40;51.00;;;;;;5032127;28;20286;-85
2022/07/14 12:00:17;;;;;;;2.28;1.10;;;31.30;50.20;;;;;;5032203;28;20198;-78
2022/07/14 12:02:52;;;;;;;3.70;1.17;;;31.60;51.20;;;;;;5032260;28;20242;-82
2022/07/14 12:05:25;;;;;;;2.33;1.15;;;32.00;50.60;;;;;;5033219;28;20253;-88
2022/07/14 12:07:56;;;;;;;2.72;1.33;;;31.80;49.80;;;;;;5032305;28;20704;-83
2022/07/14 12:10:37;;;;;;;1.55;1.10;;;31.40;49.50;;;;;;5031738;28;20207;-76
2022/07/14 12:13:07;;;;;;;1.50;1.00;;;31.20;47.80;;;;;;5033359;28;20192;-83
2022/07/14 12:15:38;;;;;;;2.55;1.10;;;31.10;49.20;;;;;;5033967;28;20198;-82
2022/07/14 12:18:06;;;;;;;2.65;1.00;;;31.50;50.30;;;;;;5032119;28;20188;-76
2022/07/14 12:20:47;;;;;;;1.88;1.23;;;31.50;49.80;;;;;;5032475;28;20195;-82
2022/07/14 12:23:15;;;;;;;2.97;1.30;;;30.60;51.10;;;;;;5031831;28;20561;-78
2022/07/14 12:25:47;;;;;;;3.55;1.10;;;30.80;51.40;;;;;;5033116;28;20254;-82
2022/07/14 12:28:17;;;;;;;3.10;1.30;;;30.90;50.60;;;;;;5032858;28;20318;-84
2022/07/14 12:30:51;;;;;;;3.15;1.10;;;31.60;50.70;;;;;;5032496;28;20199;-72
2022/07/14 12:33:35;;;;;;;2.80;1.35;;;32.10;50.60;;;;;;5032540;28;20298;-78
2022/07/14 12:36:04;;;;;;;3.00;1.20;;;31.70;49.20;;;;;;5015419;28;20720;-76
2022/07/14 12:38:34;;;;;;;1.95;1.15;;;31.80;50.80;;;;;;5031854;28;20249;-80
2022/07/14 12:41:04;;;;;;;1.95;1.30;;;32.30;51.20;;;;;;5034045;28;20526;-81
2022/07/14 12:43:35;;;;;;;2.72;1.58;;;32.60;50.40;;;;;;5032220;28;20196;-80
2022/07/14 12:46:08;;;;;;;2.17;1.30;;;32.40;49.20;;;;;;5032213;28;20556;-81
2022/07/14 12:48:58;;;;;;;3.60;1.30;;;32.40;50.00;;;;;;5032613;28;20221;-88
2022/07/14 12:51:39;;;;;;;3.70;1.40;;;32.70;50.30;;;;;;5033646;28;20195;-87
2022/07/14 12:54:16;;;;;;;4.45;2.40;;;32.60;49.20;;;;;;5036957;28;20191;-82
2022/07/14 12:56:54;;;;;;;2.45;1.23;;;32.80;50.60;;;;;;5036521;28;20206;-90
2022/07/14 12:59:27;;;;;;;3.88;1.15;;;33.00;48.60;;;;;;5036437;28;20203;-85
2022/07/14 13:02:01;;;;;;;3.40;1.38;;;32.40;49.00;;;;;;5037107;28;20539;-85
2022/07/14 13:04:28;;;;;;;4.93;1.60;;;32.00;49.40;;;;;;5036990;28;20595;-85
2022/07/14 13:07:01;;;;;;;2.90;1.30;;;32.30;51.40;;;;;;5036696;28;20220;-85
2022/07/14 13:09:29;;;;;;;5.53;1.45;;;32.90;50.40;;;;;;5036393;28;20588;-88
2022/07/14 13:11:56;;;;;;;3.17;1.35;;;32.70;49.80;;;;;;5035508;28;20196;-87